createdAt,value
2023-04-11T00:03:19.602Z,8.77
2023-04-11T00:08:41.528Z,8.69
2023-04-11T00:14:03.426Z,8.61
2023-04-11T00:19:25.251Z,8.62
2023-04-11T00:24:47.073Z,8.59
2023-04-11T00:30:09.208Z,8.59
2023-04-11T00:35:31.063Z,8.43
2023-04-11T00:40:52.865Z,8.45
2023-04-11T00:46:16.045Z,8.55
2023-04-11T00:51:38.092Z,8.56
2023-04-11T00:57:01.072Z,8.41
2023-04-11T01:02:22.972Z,8.52
2023-04-11T01:07:48.676Z,8.60
2023-04-11T01:13:11.212Z,8.57
2023-04-11T01:18:33.260Z,8.54
2023-04-11T01:23:55.733Z,8.52
2023-04-11T01:29:17.617Z,8.45
2023-04-11T01:34:40.542Z,8.39
2023-04-11T01:40:02.694Z,8.34
2023-04-11T01:45:26.362Z,8.20
2023-04-11T01:50:49.451Z,8.09
2023-04-11T01:56:11.833Z,8.18
2023-04-11T02:01:34.447Z,8.09
2023-04-11T02:06:56.289Z,8.07
2023-04-11T02:12:18.116Z,8.14
2023-04-11T02:17:39.975Z,7.96
2023-04-11T02:23:01.869Z,8.01
2023-04-11T02:28:23.835Z,7.96
2023-04-11T02:33:45.690Z,7.80
2023-04-11T02:39:07.713Z,7.63
2023-04-11T02:44:29.537Z,7.58
2023-04-11T02:49:51.347Z,7.52
2023-04-11T02:55:13.189Z,7.52
2023-04-11T03:00:35.031Z,7.41
2023-04-11T03:05:56.851Z,7.39
2023-04-11T03:11:18.666Z,7.31
2023-04-11T03:16:40.514Z,7.27
2023-04-11T03:22:02.406Z,7.08
2023-04-11T03:27:24.220Z,7.09
2023-04-11T03:32:46.228Z,7.09
2023-04-11T03:38:08.054Z,7.07
2023-04-11T03:43:29.904Z,6.98
2023-04-11T03:48:51.747Z,6.95
2023-04-11T03:54:13.568Z,6.97
2023-04-11T03:59:35.414Z,7.01
2023-04-11T04:04:57.246Z,7.09
2023-04-11T04:10:19.094Z,7.50
2023-04-11T04:15:40.878Z,8.23
2023-04-11T04:21:02.726Z,9.72
2023-04-11T04:26:24.589Z,12.37
2023-04-11T04:31:46.465Z,14.57
2023-04-11T04:37:08.345Z,16.57
2023-04-11T04:42:30.283Z,18.19
2023-04-11T04:47:52.167Z,18.86
2023-04-11T04:53:14.012Z,19.21
2023-04-11T04:58:35.834Z,20.37
2023-04-11T05:03:57.894Z,20.83
2023-04-11T05:09:20.038Z,21.50
2023-04-11T05:14:42.281Z,19.17
2023-04-11T05:20:04.693Z,17.71
2023-04-11T05:25:26.543Z,18.08
2023-04-11T05:30:48.370Z,18.72
2023-04-11T05:36:10.613Z,18.40
2023-04-11T05:41:32.519Z,21.79
2023-04-11T05:46:54.318Z,23.30
2023-04-11T05:52:16.131Z,25.29
2023-04-11T05:57:38.003Z,25.26
2023-04-11T06:03:00.304Z,26.85
2023-04-11T06:08:22.395Z,27.32
2023-04-11T06:13:44.208Z,28.58
2023-04-11T06:19:06.061Z,30.14
2023-04-11T06:24:38.932Z,27.66
2023-04-11T06:30:00.812Z,26.53
2023-04-11T06:35:22.727Z,27.63
2023-04-11T06:40:44.523Z,31.21
2023-04-11T06:46:06.559Z,29.13
2023-04-11T06:51:28.495Z,28.34
2023-04-11T06:56:50.400Z,30.99
2023-04-11T07:02:12.272Z,30.74
2023-04-11T07:07:34.163Z,30.06
2023-04-11T07:12:56.020Z,28.03
2023-04-11T07:18:17.889Z,28.70
2023-04-11T07:23:40.253Z,28.66
2023-04-11T07:29:02.072Z,28.09
2023-04-11T07:34:24.101Z,26.14
2023-04-11T07:39:45.897Z,27.58
2023-04-11T07:45:08.382Z,27.28
2023-04-11T07:50:30.177Z,29.01
2023-04-11T07:55:51.997Z,28.62
2023-04-11T08:01:24.559Z,27.87
2023-04-11T08:06:46.356Z,25.85
2023-04-11T08:12:09.232Z,26.36
2023-04-11T08:17:31.150Z,25.42
2023-04-11T08:22:53.040Z,23.02
2023-04-11T08:28:14.877Z,23.22
2023-04-11T08:33:36.730Z,22.79
2023-04-11T08:38:58.563Z,23.02
2023-04-11T08:44:20.456Z,23.76
2023-04-11T08:49:42.276Z,22.67
2023-04-11T08:55:04.314Z,23.59
2023-04-11T09:00:27.262Z,23.45
2023-04-11T09:05:49.130Z,23.53
2023-04-11T09:11:10.929Z,23.34
2023-04-11T09:16:32.862Z,22.99
2023-04-11T09:21:57.011Z,22.62
2023-04-11T09:27:19.000Z,22.88
2023-04-11T09:32:40.856Z,22.30
2023-04-11T09:38:02.736Z,20.03
2023-04-11T09:43:24.769Z,21.05
2023-04-11T09:48:48.092Z,21.75
2023-04-11T09:54:10.679Z,21.27
2023-04-11T09:59:35.515Z,19.50
2023-04-11T10:04:58.354Z,18.42
2023-04-11T10:10:24.138Z,18.23
2023-04-11T10:16:05.557Z,17.01
2023-04-11T10:21:30.232Z,17.90
2023-04-11T10:26:54.674Z,17.73
2023-04-11T10:32:16.448Z,17.73
2023-04-11T10:37:38.279Z,16.51
2023-04-11T10:43:19.461Z,16.50
2023-04-11T10:49:01.394Z,16.70
2023-04-11T10:54:26.796Z,16.32
2023-04-11T10:59:51.684Z,17.15
2023-04-11T11:05:17.513Z,16.38
2023-04-11T11:10:45.224Z,16.54
2023-04-11T11:16:08.956Z,16.57
2023-04-11T11:21:31.725Z,17.04
2023-04-11T11:26:54.918Z,16.80
2023-04-11T11:32:24.737Z,16.50
2023-04-11T11:37:46.792Z,16.57
2023-04-11T11:43:08.672Z,16.82
2023-04-11T11:48:30.495Z,16.76
2023-04-11T11:54:05.907Z,16.56
2023-04-11T11:59:27.989Z,17.12
2023-04-11T12:04:50.261Z,16.87
2023-04-11T12:10:17.156Z,16.82
2023-04-11T12:15:40.212Z,16.75
2023-04-11T12:21:02.087Z,16.92
2023-04-11T12:26:23.945Z,17.37
2023-04-11T12:31:46.095Z,17.40
2023-04-11T12:37:08.108Z,17.44
2023-04-11T12:42:29.935Z,17.06
2023-04-11T12:47:52.294Z,17.04
2023-04-11T12:53:14.259Z,17.28
2023-04-11T12:58:36.140Z,16.99
2023-04-11T13:03:58.135Z,17.23
2023-04-11T13:09:20.126Z,17.08
2023-04-11T13:14:42.026Z,17.34
2023-04-11T13:20:04.665Z,16.63
2023-04-11T13:25:26.562Z,16.36
2023-04-11T13:30:48.468Z,16.27
2023-04-11T13:36:10.919Z,16.71
2023-04-11T13:41:32.871Z,16.97
2023-04-11T13:46:54.695Z,17.12
2023-04-11T13:52:16.547Z,16.85
2023-04-11T13:57:38.363Z,16.77
2023-04-11T14:03:00.460Z,16.49
2023-04-11T14:08:22.327Z,16.58
2023-04-11T14:13:44.116Z,16.84
2023-04-11T14:19:05.921Z,16.46
2023-04-11T14:24:28.648Z,16.50
2023-04-11T14:29:50.453Z,16.20
2023-04-11T14:35:12.304Z,16.98
2023-04-11T14:40:34.229Z,16.66
2023-04-11T14:45:56.438Z,16.64
2023-04-11T14:51:18.283Z,16.55
2023-04-11T14:56:40.145Z,16.58
2023-04-11T15:02:02.071Z,16.37
2023-04-11T15:07:23.914Z,16.50
2023-04-11T15:12:46.097Z,16.38
2023-04-11T15:18:37.077Z,16.27
2023-04-11T15:23:58.975Z,16.21
2023-04-11T15:29:20.864Z,16.60
2023-04-11T15:34:42.753Z,16.44
2023-04-11T15:40:05.007Z,16.35
2023-04-11T15:45:26.850Z,16.04
2023-04-11T15:50:48.809Z,16.06
2023-04-11T15:56:11.153Z,15.79
2023-04-11T16:01:33.186Z,15.65
2023-04-11T16:06:55.126Z,15.61
2023-04-11T16:12:18.677Z,15.45
2023-04-11T16:17:40.626Z,15.60
2023-04-11T16:23:02.566Z,15.40
2023-04-11T16:28:24.518Z,15.49
2023-04-11T16:33:46.336Z,15.24
2023-04-11T16:39:08.192Z,15.26
2023-04-11T16:44:30.018Z,15.18
2023-04-11T16:49:52.360Z,15.11
2023-04-11T16:55:14.294Z,15.08
2023-04-11T17:00:36.256Z,15.03
2023-04-11T17:05:58.231Z,15.10
2023-04-11T17:11:20.072Z,14.90
2023-04-11T17:16:42.351Z,14.67
2023-04-11T17:22:04.144Z,14.66
2023-04-11T17:27:25.937Z,14.56
2023-04-11T17:32:48.436Z,14.51
2023-04-11T17:38:10.677Z,14.41
2023-04-11T17:43:32.921Z,14.21
2023-04-11T17:48:54.797Z,14.13
2023-04-11T18:00:36.748Z,13.83
2023-04-11T18:06:03.554Z,13.65
2023-04-11T18:11:25.488Z,13.39
2023-04-11T18:16:47.352Z,13.36
2023-04-11T18:22:09.298Z,13.09
2023-04-11T18:27:32.294Z,13.10
2023-04-11T18:32:54.276Z,13.11
2023-04-11T18:38:16.202Z,12.86
2023-04-11T18:43:38.922Z,12.88
2023-04-11T18:49:01.215Z,12.65
2023-04-11T18:54:23.037Z,12.67
2023-04-11T18:59:46.379Z,12.51
2023-04-11T19:05:11.202Z,12.32
2023-04-11T19:10:33.286Z,12.22
2023-04-11T19:15:55.378Z,12.13
2023-04-11T19:21:17.236Z,11.99
2023-04-11T19:26:39.076Z,12.06
2023-04-11T19:32:01.080Z,12.07
2023-04-11T19:37:22.953Z,11.94
2023-04-11T19:42:45.228Z,11.86
2023-04-11T19:48:07.102Z,11.84
2023-04-11T19:53:29.041Z,11.90
2023-04-11T19:58:50.955Z,11.87
2023-04-11T20:04:12.970Z,11.74
2023-04-11T20:09:34.887Z,11.54
2023-04-11T20:14:56.781Z,11.41
2023-04-11T20:20:19.928Z,11.39
2023-04-11T20:25:42.363Z,11.28
2023-04-11T20:31:04.388Z,11.17
2023-04-11T20:36:26.368Z,11.16
2023-04-11T20:41:48.514Z,11.04
2023-04-11T20:47:10.345Z,10.93
2023-04-11T20:52:32.314Z,11.10
2023-04-11T20:57:54.200Z,11.16
2023-04-11T21:03:16.172Z,11.21
2023-04-11T21:08:38.122Z,11.34
2023-04-11T21:13:59.957Z,11.35
2023-04-11T21:19:21.805Z,10.87
2023-04-11T21:24:43.639Z,10.95
2023-04-11T21:30:06.037Z,10.94
2023-04-11T21:35:28.117Z,10.89
2023-04-11T21:40:49.921Z,11.03
2023-04-11T21:46:11.804Z,11.06
2023-04-11T21:51:33.620Z,11.24
2023-04-11T21:56:55.399Z,11.21
2023-04-11T22:02:17.282Z,11.07
2023-04-11T22:07:39.353Z,11.13
2023-04-11T22:13:01.262Z,11.15
2023-04-11T22:18:23.072Z,11.11
2023-04-11T22:23:51.950Z,10.90
2023-04-11T22:29:13.845Z,10.85
2023-04-11T22:34:35.781Z,10.80
2023-04-11T22:39:57.649Z,10.78
2023-04-11T22:45:20.716Z,10.76
2023-04-11T22:50:43.410Z,10.66
2023-04-11T22:56:05.557Z,10.75
2023-04-11T23:01:27.481Z,10.68
2023-04-11T23:06:50.549Z,10.59
2023-04-11T23:12:12.504Z,10.64
2023-04-11T23:17:34.321Z,10.66
2023-04-11T23:22:56.118Z,10.69
2023-04-11T23:28:17.921Z,10.64
2023-04-11T23:33:39.734Z,10.67
2023-04-11T23:39:01.548Z,10.62
2023-04-11T23:44:23.475Z,10.70
2023-04-11T23:49:45.313Z,10.54
2023-04-11T23:55:07.893Z,10.33
